Time;durP1;ratioP1;P1;durP2;ratioP2;P2;SDS_P1;SDS_P2;PMS_P1;PMS_P2;Temp;Humidity;BMP_temperature;BMP_pressure;BME280_temperature;BME280_humidity;BME280_pressure;Samples;Min_cycle;Max_cycle;Signal;HPM_P1;HPM_P2
2023/06/19 00:00:31;;;;;;;9.95;9.05;;;23.70;85.30;;;;;;6198153;28;89590;-69
2023/06/19 00:03:33;;;;;;;8.85;8.00;;;23.70;85.30;;;;;;6204668;28;89222;-69
2023/06/19 00:06:35;;;;;;;8.65;7.93;;;23.80;85.30;;;;;;6206295;28;89082;-69
2023/06/19 00:09:38;;;;;;;8.65;7.85;;;23.70;85.20;;;;;;6207251;28;89169;-69
2023/06/19 00:12:40;;;;;;;8.27;7.57;;;23.70;85.20;;;;;;6205959;28;89072;-69
2023/06/19 00:15:42;;;;;;;8.90;8.10;;;23.70;85.20;;;;;;6201499;28;88444;-69
2023/06/19 00:18:44;;;;;;;8.48;7.68;;;23.80;85.30;;;;;;6206931;28;89122;-69
2023/06/19 00:21:46;;;;;;;8.75;7.95;;;23.80;85.30;;;;;;6200823;28;89143;-69
2023/06/19 00:24:49;;;;;;;8.93;8.02;;;23.70;85.20;;;;;;6203067;28;90183;-69
2023/06/19 00:27:51;;;;;;;8.82;8.02;;;23.70;85.20;;;;;;6199469;28;88985;-69
2023/06/19 00:30:53;;;;;;;8.35;7.60;;;23.70;85.20;;;;;;6201262;28;89150;-69
2023/06/19 00:33:55;;;;;;;8.45;7.75;;;23.70;85.30;;;;;;6201142;28;89453;-69
2023/06/19 00:36:57;;;;;;;8.63;7.82;;;23.70;85.30;;;;;;6206954;28;89018;-69
2023/06/19 00:40:01;;;;;;;8.98;8.20;;;23.70;85.20;;;;;;6204687;28;89027;-69
2023/06/19 00:43:03;;;;;;;9.45;8.65;;;23.70;85.30;;;;;;6205040;28;89449;-69
2023/06/19 00:46:05;;;;;;;10.02;9.13;;;23.70;85.30;;;;;;6205321;28;88354;-69
2023/06/19 00:49:08;;;;;;;9.88;8.98;;;23.70;85.30;;;;;;6205194;28;88089;-69
2023/06/19 00:52:10;;;;;;;10.27;9.38;;;23.70;85.30;;;;;;6204081;28;89146;-69
2023/06/19 00:55:14;;;;;;;10.05;9.15;;;23.80;85.40;;;;;;6193528;28;91683;-68
2023/06/19 00:58:16;;;;;;;9.40;8.50;;;23.70;85.30;;;;;;6200579;28;88997;-69
2023/06/19 01:01:19;;;;;;;8.65;7.78;;;23.70;85.30;;;;;;6204974;28;89065;-69
2023/06/19 01:04:21;;;;;;;8.70;7.93;;;23.80;85.30;;;;;;6206040;28;89214;-69
2023/06/19 01:07:32;;;;;;;9.30;8.50;;;23.70;85.20;;;;;;6205816;28;89110;-69
2023/06/19 01:10:41;;;;;;;8.98;8.07;;;23.70;85.20;;;;;;6206577;28;89285;-69
2023/06/19 01:13:47;;;;;;;9.02;8.23;;;23.70;85.20;;;;;;6205293;28;89568;-68
2023/06/19 01:16:49;;;;;;;9.18;8.38;;;23.70;85.20;;;;;;6192880;28;88299;-69
2023/06/19 01:19:51;;;;;;;9.07;8.23;;;23.70;85.20;;;;;;6204766;28;89088;-69
2023/06/19 01:22:56;;;;;;;8.98;8.18;;;23.70;85.20;;;;;;6205566;28;89108;-69
2023/06/19 01:25:58;;;;;;;9.00;8.20;;;23.70;85.20;;;;;;6201625;28;90037;-69
2023/06/19 01:29:00;;;;;;;8.82;7.95;;;23.70;85.20;;;;;;6192959;28;89068;-68
2023/06/19 01:32:11;;;;;;;9.90;8.98;;;23.70;85.20;;;;;;6201126;28;89111;-69
2023/06/19 01:35:14;;;;;;;9.35;8.48;;;23.70;85.20;;;;;;6205359;28;89147;-69
2023/06/19 01:38:19;;;;;;;9.93;9.02;;;23.70;85.30;;;;;;6205247;28;89147;-69
2023/06/19 01:41:23;;;;;;;10.05;9.15;;;23.70;85.30;;;;;;6203382;28;89130;-69
2023/06/19 01:44:26;;;;;;;10.10;9.20;;;23.70;85.30;;;;;;6205540;28;88980;-69
2023/06/19 01:47:28;;;;;;;10.00;9.10;;;23.70;85.30;;;;;;6205926;28;88392;-69
2023/06/19 01:50:30;;;;;;;9.77;8.88;;;23.70;85.30;;;;;;6201962;28;89091;-69
2023/06/19 01:53:34;;;;;;;9.55;8.65;;;23.70;85.30;;;;;;6206067;28;89126;-69
2023/06/19 01:56:37;;;;;;;10.00;9.10;;;23.70;85.30;;;;;;6204277;28;89919;-69
2023/06/19 01:59:39;;;;;;;9.00;8.20;;;23.70;85.20;;;;;;6198268;28;89437;-69
2023/06/19 02:02:41;;;;;;;9.02;8.23;;;23.70;86.10;;;;;;6197940;28;89085;-69
2023/06/19 02:05:43;;;;;;;9.10;8.30;;;23.80;85.20;;;;;;6205266;28;89113;-69
2023/06/19 02:08:46;;;;;;;9.23;8.43;;;23.70;85.20;;;;;;6203741;28;88964;-69
2023/06/19 02:11:48;;;;;;;9.32;8.52;;;23.70;85.20;;;;;;6200455;28;88653;-69
2023/06/19 02:14:50;;;;;;;8.80;8.00;;;23.70;85.20;;;;;;6203230;28;90722;-69
2023/06/19 02:17:54;;;;;;;9.27;8.43;;;23.70;85.20;;;;;;6199947;28;87278;-69
2023/06/19 02:20:56;;;;;;;9.63;8.77;;;23.70;85.20;;;;;;6202264;28;89096;-70
2023/06/19 02:24:00;;;;;;;8.80;8.05;;;23.70;85.20;;;;;;6203245;28;89133;-69
2023/06/19 02:27:02;;;;;;;9.27;8.48;;;23.70;85.30;;;;;;6193356;28;90155;-70
2023/06/19 02:30:04;;;;;;;10.20;9.30;;;23.70;85.30;;;;;;6204738;28;88303;-69
2023/06/19 02:33:06;;;;;;;10.50;9.50;;;23.70;85.40;;;;;;6202830;28;89105;-69
2023/06/19 02:36:09;;;;;;;9.93;9.07;;;23.70;85.40;;;;;;6195927;28;88232;-70
2023/06/19 02:39:12;;;;;;;10.15;9.25;;;23.70;85.40;;;;;;6208469;28;89043;-69
2023/06/19 02:42:14;;;;;;;9.65;8.85;;;23.70;85.40;;;;;;6205857;28;89167;-69
2023/06/19 02:45:17;;;;;;;9.85;8.95;;;23.70;85.30;;;;;;6197386;28;89190;-70
2023/06/19 02:48:19;;;;;;;8.75;7.95;;;23.70;85.30;;;;;;6209966;28;88394;-69
2023/06/19 02:51:21;;;;;;;9.60;8.75;;;23.70;85.20;;;;;;6205719;28;89199;-69
2023/06/19 02:54:24;;;;;;;8.93;8.13;;;23.70;85.20;;;;;;6202509;28;89060;-69
2023/06/19 02:57:26;;;;;;;9.70;8.70;;;23.70;85.20;;;;;;6206196;28;90279;-70
2023/06/19 03:00:28;;;;;;;9.48;8.57;;;23.70;85.20;;;;;;6206158;28;89061;-69
2023/06/19 03:03:30;;;;;;;9.55;8.75;;;23.70;85.20;;;;;;6194201;28;87997;-69
2023/06/19 03:06:33;;;;;;;9.23;8.40;;;23.70;85.20;;;;;;6202533;28;89048;-69
2023/06/19 03:09:37;;;;;;;10.10;9.20;;;23.70;85.20;;;;;;6202450;28;89151;-69
2023/06/19 03:12:39;;;;;;;10.35;9.45;;;23.70;85.20;;;;;;6205341;28;87978;-70
2023/06/19 03:15:41;;;;;;;10.32;9.30;;;23.70;85.20;;;;;;6208608;28;89366;-69
2023/06/19 03:18:44;;;;;;;10.18;9.18;;;23.70;85.20;;;;;;6203414;28;88038;-69
2023/06/19 03:21:46;;;;;;;9.93;8.95;;;23.70;85.30;;;;;;6200461;28;88949;-69
2023/06/19 03:24:49;;;;;;;10.10;9.18;;;23.70;85.40;;;;;;6208910;28;89399;-69
2023/06/19 03:27:51;;;;;;;10.20;9.30;;;23.70;85.40;;;;;;6202545;28;90061;-69
2023/06/19 03:30:55;;;;;;;10.18;9.25;;;23.70;85.40;;;;;;6204193;28;87899;-69
2023/06/19 03:33:57;;;;;;;10.05;9.15;;;23.70;85.40;;;;;;6196432;28;89074;-69
2023/06/19 03:36:59;;;;;;;10.65;9.68;;;23.70;85.40;;;;;;6201094;28;89063;-68
2023/06/19 03:40:05;;;;;;;10.05;9.10;;;23.70;85.30;;;;;;6203926;28;89045;-68
2023/06/19 03:43:07;;;;;;;10.00;9.10;;;23.70;85.30;;;;;;6207307;28;89082;-69
2023/06/19 03:46:09;;;;;;;9.23;8.43;;;23.70;85.30;;;;;;6206494;28;89047;-69
2023/06/19 03:49:11;;;;;;;9.27;8.48;;;23.70;86.20;;;;;;6201182;28;88420;-69
2023/06/19 03:52:13;;;;;;;10.35;9.45;;;23.70;85.30;;;;;;6204227;28;88655;-69
2023/06/19 03:55:16;;;;;;;10.63;9.50;;;23.70;85.30;;;;;;6195944;28;89469;-69
2023/06/19 03:58:18;;;;;;;9.90;9.02;;;23.70;85.40;;;;;;6207329;28;90005;-69
2023/06/19 04:01:20;;;;;;;10.40;9.40;;;23.70;85.40;;;;;;6196998;28;90465;-68
2023/06/19 04:04:22;;;;;;;10.68;9.68;;;23.70;85.30;;;;;;6194444;28;89084;-69
2023/06/19 04:07:24;;;;;;;10.60;9.60;;;23.70;85.40;;;;;;6194970;28;87941;-69
2023/06/19 04:10:27;;;;;;;9.93;9.02;;;23.70;85.30;;;;;;6206004;28;89013;-69
2023/06/19 04:13:29;;;;;;;10.60;9.68;;;23.70;85.40;;;;;;6204650;28;87944;-69
2023/06/19 04:16:31;;;;;;;11.05;10.05;;;23.70;85.40;;;;;;6205879;28;88239;-69
2023/06/19 04:19:33;;;;;;;11.25;10.15;;;23.70;85.40;;;;;;6206068;28;88324;-69
2023/06/19 04:22:35;;;;;;;11.60;10.50;;;23.70;85.50;;;;;;6207246;28;87963;-69
2023/06/19 04:25:38;;;;;;;11.07;10.07;;;23.70;85.40;;;;;;6206405;28;89027;-69
2023/06/19 04:28:41;;;;;;;10.95;9.98;;;23.70;85.50;;;;;;6204541;28;90060;-69
2023/06/19 04:31:46;;;;;;;10.57;9.60;;;23.70;85.50;;;;;;6205331;28;89453;-69
2023/06/19 04:34:49;;;;;;;10.82;9.82;;;23.70;85.40;;;;;;6194700;28;89620;-69
2023/06/19 04:37:51;;;;;;;11.55;10.38;;;23.70;85.40;;;;;;6197324;28;89407;-69
2023/06/19 04:40:57;;;;;;;11.20;10.07;;;23.70;85.40;;;;;;6205369;28;89117;-69
2023/06/19 04:44:00;;;;;;;10.68;9.68;;;23.70;85.40;;;;;;6194402;28;89368;-69
2023/06/19 04:47:02;;;;;;;10.63;9.68;;;23.70;85.40;;;;;;6207222;28;88991;-69
2023/06/19 04:50:04;;;;;;;10.90;9.90;;;23.70;85.40;;;;;;6194175;28;88421;-69
2023/06/19 04:53:07;;;;;;;9.80;8.90;;;23.70;85.40;;;;;;6203610;28;89127;-69
2023/06/19 04:56:10;;;;;;;10.32;9.43;;;23.70;85.50;;;;;;6206415;28;89007;-69
2023/06/19 04:59:12;;;;;;;10.60;9.60;;;23.70;85.50;;;;;;6203592;28;89996;-69
2023/06/19 05:02:14;;;;;;;10.75;9.85;;;23.70;85.50;;;;;;6196766;28;89212;-69
2023/06/19 05:05:16;;;;;;;11.13;10.13;;;23.70;85.50;;;;;;6196838;28;90047;-69
2023/06/19 05:08:18;;;;;;;11.15;10.15;;;23.70;85.50;;;;;;6204657;28;89003;-69
2023/06/19 05:11:21;;;;;;;11.05;10.02;;;23.70;85.50;;;;;;6200520;28;89094;-69
2023/06/19 05:14:23;;;;;;;10.70;9.77;;;23.70;85.60;;;;;;6194104;28;89093;-69
2023/06/19 05:17:25;;;;;;;10.52;9.52;;;23.70;85.60;;;;;;6203954;28;89001;-68
2023/06/19 05:20:27;;;;;;;11.40;10.30;;;23.70;85.60;;;;;;6192913;28;88297;-69
2023/06/19 05:23:29;;;;;;;10.80;9.90;;;23.70;85.60;;;;;;6204447;28;88326;-68
2023/06/19 05:26:33;;;;;;;11.05;10.10;;;23.70;85.50;;;;;;6205508;28;87785;-69
2023/06/19 05:29:35;;;;;;;10.60;9.65;;;23.70;85.50;;;;;;6204625;28;90020;-69
2023/06/19 05:32:37;;;;;;;10.50;9.55;;;23.70;85.50;;;;;;6193572;28;89010;-69
2023/06/19 05:35:39;;;;;;;10.00;9.20;;;23.80;85.60;;;;;;6202396;28;89023;-69
2023/06/19 05:38:41;;;;;;;10.82;9.82;;;23.70;85.50;;;;;;6205046;28;89119;-69
2023/06/19 05:41:45;;;;;;;10.30;9.40;;;23.70;85.50;;;;;;6192740;28;89141;-69
2023/06/19 05:44:47;;;;;;;9.77;8.88;;;23.70;85.50;;;;;;6193602;28;87966;-69
2023/06/19 05:47:49;;;;;;;10.05;9.15;;;23.70;85.50;;;;;;6205008;28;88979;-69
2023/06/19 05:50:51;;;;;;;10.25;9.30;;;23.70;85.60;;;;;;6204533;28;88401;-69
2023/06/19 05:53:53;;;;;;;10.73;9.73;;;23.70;85.60;;;;;;6203236;28;89134;-69
2023/06/19 05:56:57;;;;;;;10.43;9.52;;;23.70;85.70;;;;;;6205697;28;89027;-68
2023/06/19 05:59:59;;;;;;;10.60;9.68;;;23.70;85.70;;;;;;6204297;28;90245;-69
2023/06/19 06:03:01;;;;;;;11.13;10.13;;;23.70;85.70;;;;;;6202747;28;89285;-69
2023/06/19 06:06:03;;;;;;;11.40;10.40;;;23.70;85.70;;;;;;6203956;28;89047;-69
2023/06/19 06:09:05;;;;;;;11.05;10.05;;;23.70;85.70;;;;;;6196009;28;89092;-69
2023/06/19 06:12:09;;;;;;;10.98;9.98;;;23.70;85.70;;;;;;6201483;28;89047;-69
2023/06/19 06:15:12;;;;;;;11.18;10.18;;;23.70;85.70;;;;;;6189524;28;89097;-68
2023/06/19 06:18:14;;;;;;;10.95;10.00;;;23.70;85.70;;;;;;6204666;28;89015;-69
2023/06/19 06:21:15;;;;;;;10.45;9.50;;;23.70;85.70;;;;;;6198717;28;88586;-69
2023/06/19 06:24:17;;;;;;;11.02;9.93;;;23.70;85.60;;;;;;6208295;28;89052;-69
2023/06/19 06:27:21;;;;;;;9.60;8.70;;;23.70;85.60;;;;;;6209767;28;89071;-69
2023/06/19 06:30:23;;;;;;;9.80;8.90;;;23.70;85.60;;;;;;6208429;28;91061;-69
2023/06/19 06:33:25;;;;;;;9.70;8.85;;;23.70;85.60;;;;;;6196676;28;88461;-68
2023/06/19 06:36:28;;;;;;;10.30;9.40;;;23.70;85.60;;;;;;6204856;28;88225;-69
2023/06/19 06:39:30;;;;;;;10.45;9.52;;;23.70;85.60;;;;;;6194540;28;89044;-68
2023/06/19 06:42:34;;;;;;;10.25;9.27;;;23.70;85.60;;;;;;6209905;28;89104;-69
2023/06/19 06:45:37;;;;;;;10.18;9.23;;;23.70;85.70;;;;;;6208330;28;89103;-69
2023/06/19 06:48:39;;;;;;;10.38;9.48;;;23.70;85.70;;;;;;6208253;28;89090;-69
2023/06/19 06:51:41;;;;;;;10.07;9.18;;;23.70;85.70;;;;;;6197251;28;88435;-69
2023/06/19 06:54:43;;;;;;;10.43;9.48;;;23.70;85.70;;;;;;6207882;28;89126;-69
2023/06/19 06:57:47;;;;;;;10.45;9.55;;;23.70;85.70;;;;;;6208280;28;89146;-69
2023/06/19 07:00:50;;;;;;;10.57;9.68;;;23.70;85.80;;;;;;6208538;28;90175;-69
2023/06/19 07:03:53;;;;;;;10.55;9.65;;;23.70;85.80;;;;;;6205313;28;89172;-69
2023/06/19 07:06:55;;;;;;;10.93;9.90;;;23.70;85.80;;;;;;6190535;28;89912;-69
2023/06/19 07:09:57;;;;;;;11.43;10.32;;;23.70;85.80;;;;;;6199907;28;87490;-68
2023/06/19 07:13:00;;;;;;;10.38;9.38;;;23.70;85.70;;;;;;6197049;28;89070;-69
2023/06/19 07:16:04;;;;;;;9.88;9.02;;;23.70;85.70;;;;;;6208915;28;89079;-68
2023/06/19 07:19:06;;;;;;;9.57;8.75;;;23.70;85.70;;;;;;6208479;28;89151;-69
2023/06/19 07:22:09;;;;;;;10.52;9.55;;;23.70;85.70;;;;;;6206248;28;88350;-69
2023/06/19 07:25:12;;;;;;;10.20;9.30;;;23.70;85.70;;;;;;6207545;28;89061;-69
2023/06/19 07:28:16;;;;;;;9.95;9.10;;;23.70;85.70;;;;;;6207128;28;87990;-69
2023/06/19 07:31:18;;;;;;;10.18;9.27;;;23.70;85.70;;;;;;6205986;28;89992;-69
2023/06/19 07:34:21;;;;;;;10.30;9.40;;;23.70;85.70;;;;;;6204362;28;89481;-69
2023/06/19 07:37:23;;;;;;;9.65;8.75;;;23.70;85.70;;;;;;6196479;28;89064;-68
2023/06/19 07:40:25;;;;;;;9.68;8.77;;;23.70;85.70;;;;;;6207607;28;89134;-68
2023/06/19 07:43:28;;;;;;;9.77;8.88;;;23.70;85.70;;;;;;6204965;28;87818;-69
2023/06/19 07:46:30;;;;;;;10.07;9.20;;;23.70;85.70;;;;;;6193344;28;90090;-69
2023/06/19 07:49:32;;;;;;;10.45;9.48;;;23.70;85.70;;;;;;6207462;28;89039;-69
2023/06/19 07:52:34;;;;;;;10.25;9.35;;;23.70;85.80;;;;;;6195288;28;88875;-69
2023/06/19 07:55:37;;;;;;;9.93;9.02;;;23.70;85.80;;;;;;6202659;28;88981;-69
2023/06/19 07:58:41;;;;;;;10.63;9.63;;;23.70;85.80;;;;;;6196871;28;89116;-69
2023/06/19 08:01:43;;;;;;;10.27;9.38;;;23.70;85.90;;;;;;6205823;28;90296;-69
2023/06/19 08:04:46;;;;;;;9.38;8.57;;;23.70;85.90;;;;;;6206035;28;89301;-69
2023/06/19 08:07:47;;;;;;;10.20;9.20;;;23.70;85.80;;;;;;6206616;28;89116;-69
2023/06/19 08:10:49;;;;;;;9.90;9.00;;;23.70;85.80;;;;;;6203221;28;89439;-69
2023/06/19 08:13:53;;;;;;;10.10;9.20;;;23.70;85.90;;;;;;6207158;28;89132;-69
2023/06/19 08:16:55;;;;;;;10.23;9.32;;;23.70;85.90;;;;;;6206689;28;88034;-69
2023/06/19 08:19:57;;;;;;;9.60;8.80;;;23.70;85.90;;;;;;6207305;28;89062;-69
2023/06/19 08:22:59;;;;;;;10.45;9.45;;;23.70;85.90;;;;;;6194189;28;88590;-69
2023/06/19 08:26:02;;;;;;;10.02;9.10;;;23.70;85.90;;;;;;6194948;28;89065;-69
2023/06/19 08:29:05;;;;;;;10.43;9.43;;;23.70;85.90;;;;;;6194901;28;88814;-69
2023/06/19 08:32:09;;;;;;;10.15;9.25;;;23.70;85.90;;;;;;6207178;28;89940;-69
2023/06/19 08:35:11;;;;;;;9.68;8.80;;;23.70;85.90;;;;;;6193792;28;89193;-69
2023/06/19 08:38:13;;;;;;;9.80;8.90;;;23.70;85.90;;;;;;6196654;28;89202;-69
2023/06/19 08:41:15;;;;;;;10.23;9.32;;;23.70;85.90;;;;;;6206215;28;89226;-68
2023/06/19 08:44:18;;;;;;;9.77;8.98;;;23.70;85.90;;;;;;6206437;28;89092;-68
2023/06/19 08:47:20;;;;;;;9.82;9.00;;;23.70;85.90;;;;;;6205092;28;89169;-69
2023/06/19 08:50:22;;;;;;;9.88;8.98;;;23.60;85.90;;;;;;6205250;28;89020;-68
2023/06/19 08:53:24;;;;;;;10.15;9.25;;;23.70;85.90;;;;;;6193614;28;88368;-69
2023/06/19 08:56:26;;;;;;;10.35;9.45;;;23.70;85.90;;;;;;6206266;28;89069;-69
2023/06/19 08:59:32;;;;;;;10.25;9.35;;;23.70;85.90;;;;;;6205841;28;89105;-69
2023/06/19 09:02:42;;;;;;;10.00;9.10;;;23.70;85.90;;;;;;6182788;28;90136;-69
2023/06/19 09:05:49;;;;;;;9.35;8.55;;;23.70;85.90;;;;;;6206464;28;91687;-69
2023/06/19 09:08:59;;;;;;;10.30;9.40;;;23.70;85.90;;;;;;6205773;28;89176;-69
2023/06/19 09:12:03;;;;;;;9.80;8.95;;;23.70;85.90;;;;;;6188435;28;89473;-69
2023/06/19 09:15:13;;;;;;;9.88;8.88;;;23.70;85.80;;;;;;6205929;28;89035;-69
2023/06/19 09:18:15;;;;;;;10.10;9.20;;;23.70;85.80;;;;;;6205801;28;89368;-69
2023/06/19 09:21:19;;;;;;;9.52;8.73;;;23.70;85.90;;;;;;6205159;28;89088;-69
2023/06/19 09:24:21;;;;;;;9.65;8.75;;;23.80;85.90;;;;;;6206167;28;88506;-68
2023/06/19 09:27:23;;;;;;;9.38;8.57;;;23.70;85.80;;;;;;6204075;28;89289;-69
2023/06/19 09:30:26;;;;;;;9.63;8.82;;;23.70;85.80;;;;;;6194392;28;89057;-69
2023/06/19 09:33:29;;;;;;;9.82;9.00;;;23.70;85.80;;;;;;6200917;28;90022;-69
2023/06/19 09:36:34;;;;;;;10.07;9.18;;;23.70;85.90;;;;;;6201999;28;89098;-69
2023/06/19 09:39:39;;;;;;;9.35;8.55;;;23.70;85.90;;;;;;6205104;28;89389;-69
2023/06/19 09:42:42;;;;;;;9.27;8.48;;;23.80;85.90;;;;;;6203489;28;89085;-69
2023/06/19 09:45:49;;;;;;;9.63;8.73;;;23.70;85.90;;;;;;6188730;28;89014;-69
2023/06/19 09:48:54;;;;;;;9.52;8.63;;;23.70;85.90;;;;;;6210064;28;88944;-69
2023/06/19 09:51:56;;;;;;;9.13;8.27;;;23.70;85.90;;;;;;6209080;28;89093;-69
2023/06/19 09:54:58;;;;;;;9.65;8.85;;;23.80;85.90;;;;;;6210459;28;88390;-68
2023/06/19 09:58:01;;;;;;;9.68;8.80;;;23.80;86.00;;;;;;6209454;28;89394;-69
2023/06/19 10:01:07;;;;;;;9.38;8.57;;;23.70;85.90;;;;;;6210293;28;88886;-68
2023/06/19 10:04:10;;;;;;;9.55;8.70;;;23.80;86.00;;;;;;6207171;28;92054;-68
2023/06/19 10:07:23;;;;;;;9.15;8.35;;;23.80;86.00;;;;;;6210455;28;89243;-69
2023/06/19 10:10:26;;;;;;;8.93;8.13;;;23.70;85.90;;;;;;6206220;28;89228;-69
2023/06/19 10:13:36;;;;;;;9.05;8.30;;;23.80;85.90;;;;;;6209213;28;89102;-69
2023/06/19 10:16:41;;;;;;;9.30;8.50;;;23.70;85.90;;;;;;6209180;28;89085;-68
2023/06/19 10:19:51;;;;;;;9.43;8.63;;;23.80;86.00;;;;;;6205569;28;89193;-68
2023/06/19 10:22:58;;;;;;;9.30;8.50;;;23.70;85.90;;;;;;6206678;28;89024;-68
2023/06/19 10:26:01;;;;;;;10.00;9.00;;;23.80;86.00;;;;;;6207980;28;88582;-69
2023/06/19 10:29:14;;;;;;;9.13;8.32;;;23.80;86.00;;;;;;6210050;28;89451;-68
2023/06/19 10:32:17;;;;;;;9.80;8.98;;;23.70;86.00;;;;;;6187149;28;88151;-69
2023/06/19 10:35:21;;;;;;;9.48;8.60;;;23.70;86.10;;;;;;6207152;28;90041;-68
2023/06/19 10:38:23;;;;;;;8.90;8.10;;;23.80;86.10;;;;;;6209030;28;89378;-68
2023/06/19 10:41:26;;;;;;;9.10;8.30;;;23.70;86.10;;;;;;6208760;28;87851;-68
2023/06/19 10:44:28;;;;;;;9.65;8.85;;;23.80;86.20;;;;;;6201801;28;89137;-68
2023/06/19 10:47:32;;;;;;;8.88;8.07;;;23.80;86.20;;;;;;6208809;28;87989;-69
2023/06/19 10:50:42;;;;;;;9.65;8.73;;;23.80;86.20;;;;;;6208570;28;89089;-69
2023/06/19 10:53:44;;;;;;;9.20;8.40;;;23.80;86.20;;;;;;6208916;28;89035;-68
2023/06/19 10:56:48;;;;;;;9.30;8.50;;;23.80;86.20;;;;;;6207480;28;88330;-68
2023/06/19 10:59:53;;;;;;;8.93;8.13;;;23.80;86.20;;;;;;6194698;28;88932;-68
2023/06/19 11:02:56;;;;;;;9.15;8.35;;;23.80;86.20;;;;;;6208429;28;89099;-69
2023/06/19 11:05:59;;;;;;;9.10;8.27;;;23.80;86.20;;;;;;6202889;28;90052;-69
2023/06/19 11:09:03;;;;;;;9.27;8.48;;;23.80;86.20;;;;;;6208381;28;89530;-69
2023/06/19 11:12:07;;;;;;;9.48;8.68;;;23.80;86.20;;;;;;6207685;28;89569;-69
2023/06/19 11:15:11;;;;;;;9.10;8.30;;;23.80;86.20;;;;;;6204872;28;88968;-69
2023/06/19 11:18:17;;;;;;;9.27;8.48;;;23.80;86.20;;;;;;6208310;28;89187;-69
2023/06/19 11:21:19;;;;;;;9.13;8.32;;;23.80;86.20;;;;;;6203842;28;88534;-69
2023/06/19 11:24:23;;;;;;;8.82;8.02;;;23.80;86.30;;;;;;6201175;28;89068;-69
2023/06/19 11:27:28;;;;;;;8.93;8.15;;;23.80;86.40;;;;;;6194362;28;88340;-69
2023/06/19 11:30:32;;;;;;;8.93;8.13;;;23.80;86.40;;;;;;6200359;28;87902;-68
2023/06/19 11:33:37;;;;;;;8.90;8.10;;;23.80;86.50;;;;;;6206844;28;89316;-69
2023/06/19 11:36:39;;;;;;;8.75;8.05;;;23.80;86.40;;;;;;6190158;28;89927;-69
2023/06/19 11:39:41;;;;;;;8.75;7.97;;;23.80;86.40;;;;;;6207364;28;89184;-69
2023/06/19 11:42:48;;;;;;;9.63;8.77;;;23.80;86.50;;;;;;6205640;28;89018;-69
2023/06/19 11:45:51;;;;;;;9.48;8.57;;;23.80;86.50;;;;;;6200044;28;89025;-69
2023/06/19 11:48:54;;;;;;;9.10;8.25;;;23.80;86.50;;;;;;6207501;28;89146;-69
2023/06/19 11:51:57;;;;;;;8.82;8.10;;;23.80;86.40;;;;;;6208231;28;89004;-68
2023/06/19 11:54:59;;;;;;;9.13;8.32;;;23.80;86.40;;;;;;6207736;28;89540;-68
2023/06/19 11:58:01;;;;;;;8.40;7.70;;;23.80;86.40;;;;;;6195129;28;87251;-69
2023/06/19 12:01:03;;;;;;;8.70;8.00;;;23.90;86.50;;;;;;6207453;28;89112;-68
2023/06/19 12:04:06;;;;;;;9.20;8.40;;;23.80;86.40;;;;;;6206827;28;89020;-69
2023/06/19 12:07:08;;;;;;;8.55;7.85;;;23.90;86.50;;;;;;6197295;28;90022;-69
2023/06/19 12:10:11;;;;;;;8.20;7.50;;;23.80;86.70;;;;;;6197709;28;89087;-69
2023/06/19 12:13:13;;;;;;;8.60;7.80;;;23.90;86.50;;;;;;6202332;28;89084;-68
2023/06/19 12:16:16;;;;;;;8.77;7.97;;;23.80;86.50;;;;;;6206497;28;89095;-68
2023/06/19 12:19:19;;;;;;;8.50;7.80;;;23.80;86.50;;;;;;6203836;28;89143;-69
2023/06/19 12:22:22;;;;;;;8.95;8.20;;;23.80;86.60;;;;;;6206201;28;89153;-68
2023/06/19 12:25:23;;;;;;;9.27;8.48;;;23.80;86.60;;;;;;6196724;28;89086;-68
2023/06/19 12:28:25;;;;;;;8.63;7.93;;;23.80;86.60;;;;;;6204285;28;88415;-69
2023/06/19 12:31:27;;;;;;;8.75;8.02;;;23.80;86.60;;;;;;6205898;28;89015;-69
2023/06/19 12:34:31;;;;;;;10.32;9.32;;;23.80;86.60;;;;;;6204668;28;89073;-69
2023/06/19 12:37:33;;;;;;;8.85;8.13;;;23.90;86.70;;;;;;6206337;28;89945;-68
2023/06/19 12:40:35;;;;;;;9.10;8.35;;;23.80;86.60;;;;;;6207261;28;89014;-68
2023/06/19 12:43:37;;;;;;;8.73;8.02;;;23.90;86.60;;;;;;6196052;28;89212;-68
2023/06/19 12:46:39;;;;;;;8.95;8.15;;;23.80;86.60;;;;;;6204094;28;89055;-68
2023/06/19 12:49:42;;;;;;;8.52;7.82;;;23.80;86.60;;;;;;6204225;28;88856;-69
2023/06/19 12:52:44;;;;;;;8.43;7.72;;;23.80;86.60;;;;;;6206414;28;89050;-69
2023/06/19 12:55:46;;;;;;;8.57;7.88;;;23.80;86.60;;;;;;6206316;28;89110;-68
2023/06/19 12:58:48;;;;;;;8.57;7.88;;;23.80;86.60;;;;;;6206808;28;88358;-68
2023/06/19 13:01:50;;;;;;;8.65;7.88;;;23.80;86.60;;;;;;6204348;28;89112;-68
2023/06/19 13:04:53;;;;;;;8.35;7.65;;;23.90;86.60;;;;;;6195087;28;89108;-68
2023/06/19 13:07:55;;;;;;;8.77;8.07;;;23.80;86.50;;;;;;6197351;28;89939;-68
2023/06/19 13:10:57;;;;;;;8.55;7.82;;;23.90;86.60;;;;;;6201769;28;89185;-69
2023/06/19 13:13:59;;;;;;;8.50;7.80;;;23.90;86.60;;;;;;6192893;28;89185;-68
2023/06/19 13:17:01;;;;;;;8.55;7.85;;;23.80;86.60;;;;;;6205655;28;89126;-68
2023/06/19 13:20:06;;;;;;;8.70;8.00;;;23.80;86.60;;;;;;6205882;28;89078;-68
2023/06/19 13:23:08;;;;;;;8.60;7.90;;;23.90;86.70;;;;;;6206582;28;89070;-69
2023/06/19 13:26:10;;;;;;;8.77;8.00;;;23.90;86.70;;;;;;6204478;28;89024;-69
2023/06/19 13:29:13;;;;;;;9.13;8.23;;;23.90;86.70;;;;;;6204213;28;88614;-68
2023/06/19 13:32:14;;;;;;;9.18;8.27;;;23.90;86.70;;;;;;6204936;28;89179;-69
2023/06/19 13:35:18;;;;;;;8.57;7.88;;;23.80;86.60;;;;;;6201440;28;89071;-69
2023/06/19 13:38:21;;;;;;;8.50;7.80;;;23.90;86.70;;;;;;6204853;28;90060;-68
2023/06/19 13:41:23;;;;;;;8.85;8.05;;;23.80;86.60;;;;;;6204178;28;89135;-69
2023/06/19 13:44:26;;;;;;;8.60;7.90;;;23.90;86.70;;;;;;6194281;28;88454;-69
2023/06/19 13:47:28;;;;;;;8.77;7.95;;;23.90;86.70;;;;;;6205338;28;89252;-69
2023/06/19 13:50:32;;;;;;;9.15;8.35;;;23.80;86.60;;;;;;6205379;28;89166;-69
2023/06/19 13:53:34;;;;;;;8.55;7.78;;;23.90;86.60;;;;;;6204941;28;88992;-68
2023/06/19 13:56:37;;;;;;;9.05;8.25;;;23.90;86.60;;;;;;6199359;28;87953;-69
2023/06/19 13:59:39;;;;;;;8.50;7.70;;;23.90;86.60;;;;;;6195536;28;88474;-69
2023/06/19 14:02:41;;;;;;;8.48;7.78;;;23.90;86.70;;;;;;6204339;28;88914;-69
2023/06/19 14:05:45;;;;;;;8.13;7.43;;;23.90;86.70;;;;;;6203698;28;88936;-69
2023/06/19 14:08:47;;;;;;;8.35;7.65;;;23.90;86.70;;;;;;6202863;28;90351;-69
2023/06/19 14:11:49;;;;;;;8.35;7.65;;;23.90;86.70;;;;;;6204528;28;89119;-69
2023/06/19 14:14:51;;;;;;;8.65;7.85;;;23.90;86.80;;;;;;6204619;28;89403;-69
2023/06/19 14:17:53;;;;;;;8.98;8.18;;;23.90;86.70;;;;;;6204725;28;88996;-69
2023/06/19 14:20:57;;;;;;;8.30;7.60;;;23.90;86.70;;;;;;6205515;28;89094;-69
2023/06/19 14:23:59;;;;;;;8.05;7.40;;;23.90;86.80;;;;;;6203788;28;89127;-69
2023/06/19 14:27:01;;;;;;;8.40;7.70;;;23.90;86.70;;;;;;6203846;28;89190;-69
2023/06/19 14:30:04;;;;;;;8.00;7.30;;;23.90;86.70;;;;;;6204910;28;88497;-69
2023/06/19 14:33:10;;;;;;;8.55;7.85;;;23.90;86.70;;;;;;6206966;28;89568;-70
2023/06/19 14:36:13;;;;;;;9.18;8.27;;;23.90;86.70;;;;;;6202607;28;89195;-70
2023/06/19 14:39:15;;;;;;;8.23;7.53;;;23.90;86.70;;;;;;6208213;28;89254;-69
2023/06/19 14:42:17;;;;;;;8.10;7.40;;;23.90;86.70;;;;;;6209318;28;89151;-70
2023/06/19 14:45:19;;;;;;;8.43;7.70;;;23.90;86.70;;;;;;6198209;28;89056;-70
2023/06/19 14:48:21;;;;;;;8.05;7.35;;;23.90;86.70;;;;;;6208814;28;89143;-69
2023/06/19 14:51:24;;;;;;;8.65;7.95;;;23.90;86.60;;;;;;6208704;28;89150;-69
2023/06/19 14:54:26;;;;;;;8.20;7.40;;;23.90;86.70;;;;;;6209189;28;87993;-69
2023/06/19 14:57:28;;;;;;;7.85;7.15;;;23.90;86.70;;;;;;6207893;28;89028;-70
2023/06/19 15:00:30;;;;;;;8.15;7.45;;;23.90;86.70;;;;;;6204726;28;88684;-69
2023/06/19 15:03:32;;;;;;;8.18;7.47;;;23.90;86.70;;;;;;6194045;28;89463;-70
2023/06/19 15:06:36;;;;;;;8.43;7.72;;;23.90;86.70;;;;;;6207845;28;89128;-70
2023/06/19 15:09:38;;;;;;;7.72;7.13;;;23.90;86.70;;;;;;6204801;28;90056;-69
2023/06/19 15:12:39;;;;;;;7.95;7.30;;;23.90;86.70;;;;;;6203716;28;89317;-69
2023/06/19 15:15:42;;;;;;;8.13;7.43;;;23.90;86.70;;;;;;6208910;28;89434;-69
2023/06/19 15:18:44;;;;;;;7.95;7.35;;;23.90;86.80;;;;;;6206499;28;89308;-69
2023/06/19 15:21:47;;;;;;;8.15;7.45;;;23.90;86.70;;;;;;6207893;28;89076;-70
2023/06/19 15:24:49;;;;;;;8.15;7.45;;;23.90;86.70;;;;;;6206221;28;89119;-69
2023/06/19 15:27:51;;;;;;;8.95;8.15;;;23.90;86.70;;;;;;6207459;28;89408;-69
2023/06/19 15:30:53;;;;;;;8.10;7.40;;;23.90;86.70;;;;;;6207158;28;87276;-69
2023/06/19 15:33:55;;;;;;;7.95;7.35;;;23.90;86.70;;;;;;6207343;28;89332;-69
2023/06/19 15:36:58;;;;;;;7.63;7.03;;;23.90;86.70;;;;;;6198455;28;89088;-69
2023/06/19 15:40:01;;;;;;;8.05;7.35;;;23.90;86.70;;;;;;6207444;28;88891;-69
2023/06/19 15:43:03;;;;;;;8.25;7.55;;;23.90;86.70;;;;;;6202285;28;89136;-69
2023/06/19 15:46:07;;;;;;;8.05;7.38;;;23.90;86.70;;;;;;6190685;28;87914;-69